Time;durP1;ratioP1;P1;durP2;ratioP2;P2;SDS_P1;SDS_P2;PMS_P1;PMS_P2;Temp;Humidity;BMP_temperature;BMP_pressure;BME280_temperature;BME280_humidity;BME280_pressure;Samples;Min_cycle;Max_cycle;Signal;HPM_P1;HPM_P2
2022/06/16 00:00:14;;;;;;;2.40;2.13;;;17.40;99.90;;;;;;5053452;28;20565;-38
2022/06/16 00:02:47;;;;;;;4.43;2.50;;;17.40;99.90;;;;;;5053487;28;20176;-38
2022/06/16 00:05:16;;;;;;;4.00;2.70;;;17.30;99.90;;;;;;5053510;28;20172;-38
2022/06/16 00:07:42;;;;;;;3.53;2.47;;;17.30;99.90;;;;;;5053732;28;20188;-37
2022/06/16 00:10:08;;;;;;;3.77;2.70;;;17.30;99.90;;;;;;5053221;28;20714;-38
2022/06/16 00:12:34;;;;;;;6.03;2.60;;;17.30;99.90;;;;;;5053562;28;20203;-38
2022/06/16 00:15:00;;;;;;;5.97;2.47;;;17.20;99.90;;;;;;5053403;28;20223;-39
2022/06/16 00:17:26;;;;;;;5.43;2.83;;;17.20;99.90;;;;;;5053256;28;20582;-37
2022/06/16 00:19:52;;;;;;;5.90;2.60;;;17.20;99.90;;;;;;5053263;28;20249;-38
2022/06/16 00:22:18;;;;;;;5.77;3.03;;;17.10;99.90;;;;;;5053493;28;20176;-38
2022/06/16 00:24:43;;;;;;;5.87;2.90;;;17.10;99.90;;;;;;5053399;28;20184;-37
2022/06/16 00:27:09;;;;;;;4.67;3.00;;;17.00;99.90;;;;;;5053447;28;20236;-37
2022/06/16 00:29:35;;;;;;;6.93;3.00;;;17.00;99.90;;;;;;5053110;28;20199;-40
2022/06/16 00:32:01;;;;;;;12.70;2.80;;;16.90;99.90;;;;;;5053348;28;20544;-40
2022/06/16 00:34:27;;;;;;;6.53;3.23;;;16.90;99.90;;;;;;5053433;28;20180;-39
2022/06/16 00:36:53;;;;;;;6.43;2.90;;;16.90;99.90;;;;;;5053016;28;20203;-39
2022/06/16 00:39:19;;;;;;;3.63;2.90;;;16.80;99.90;;;;;;5052970;28;20215;-40
2022/06/16 00:41:44;;;;;;;4.70;2.80;;;16.80;99.90;;;;;;5053353;28;20640;-39
2022/06/16 00:44:17;;;;;;;5.87;3.33;;;16.80;99.90;;;;;;5052947;28;20191;-39
2022/06/16 00:46:42;;;;;;;6.23;3.20;;;16.70;99.90;;;;;;5053295;28;20168;-39
2022/06/16 00:49:12;;;;;;;4.10;2.97;;;16.70;99.90;;;;;;5052851;28;20254;-38
2022/06/16 00:51:44;;;;;;;3.77;2.97;;;16.70;99.90;;;;;;5052891;28;20226;-39
2022/06/16 00:54:31;;;;;;;5.03;3.13;;;16.70;99.90;;;;;;5053121;28;20592;-38
2022/06/16 00:57:02;;;;;;;3.53;2.73;;;16.70;99.90;;;;;;5052873;28;20241;-39
2022/06/16 00:59:29;;;;;;;4.70;2.93;;;16.70;99.90;;;;;;5052191;28;20212;-39
2022/06/16 01:01:54;;;;;;;8.00;3.50;;;16.70;99.90;;;;;;5052902;28;20169;-39
2022/06/16 01:07:09;;;;;;;5.00;3.40;;;16.70;99.90;;;;;;5053221;28;20647;-42
2022/06/16 01:09:36;;;;;;;8.23;3.60;;;16.80;99.90;;;;;;5053041;28;20216;-39
2022/06/16 01:15:23;;;;;;;5.97;3.13;;;16.70;99.90;;;;;;5053318;28;20215;-39
2022/06/16 01:18:10;;;;;;;5.10;3.67;;;16.70;99.90;;;;;;5052855;28;20232;-41
2022/06/16 01:20:46;;;;;;;5.33;3.60;;;16.60;99.90;;;;;;5053218;28;20161;-39
2022/06/16 01:23:23;;;;;;;5.77;3.57;;;16.60;99.90;;;;;;5052852;28;20164;-39
2022/06/16 01:25:53;;;;;;;5.80;3.20;;;16.60;99.90;;;;;;5052927;28;20214;-40
2022/06/16 01:29:09;;;;;;;5.20;3.10;;;16.60;99.90;;;;;;5052906;28;20279;-39
2022/06/16 01:31:52;;;;;;;6.10;3.03;;;16.60;99.90;;;;;;5026783;28;20196;-41
2022/06/16 01:34:35;;;;;;;6.67;3.60;;;16.60;99.90;;;;;;5052669;28;20255;-38
2022/06/16 01:37:07;;;;;;;4.17;3.13;;;16.60;99.90;;;;;;5052907;28;20177;-40
2022/06/16 01:39:39;;;;;;;4.93;3.47;;;16.60;99.90;;;;;;5053110;28;20208;-40
2022/06/16 01:42:23;;;;;;;6.40;2.93;;;16.60;99.90;;;;;;5054818;28;20648;-40
2022/06/16 01:45:09;;;;;;;4.03;2.87;;;16.60;99.90;;;;;;5056586;28;20583;-42
2022/06/16 01:47:38;;;;;;;4.97;2.87;;;16.60;99.90;;;;;;5057206;28;20564;-40
2022/06/16 01:50:15;;;;;;;4.90;3.30;;;16.60;99.90;;;;;;5056590;28;20200;-40
2022/06/16 01:53:07;;;;;;;8.20;3.10;;;16.60;99.90;;;;;;5056417;28;20172;-40
2022/06/16 01:55:37;;;;;;;5.10;3.10;;;16.50;99.90;;;;;;5056815;28;20157;-40
2022/06/16 01:58:10;;;;;;;6.60;3.77;;;16.50;99.90;;;;;;5055726;28;20215;-39
2022/06/16 02:00:35;;;;;;;9.60;3.70;;;16.50;99.90;;;;;;5056152;28;20161;-39
2022/06/16 02:03:06;;;;;;;5.43;3.27;;;16.50;99.90;;;;;;5054547;28;20267;-39
2022/06/16 02:05:43;;;;;;;6.00;3.73;;;16.40;99.90;;;;;;5056145;28;20171;-41
2022/06/16 02:08:16;;;;;;;5.10;3.30;;;16.30;99.90;;;;;;5055824;28;20204;-38
2022/06/16 02:10:55;;;;;;;5.73;3.73;;;16.30;99.90;;;;;;5055859;28;20172;-46
2022/06/16 02:13:28;;;;;;;3.80;3.10;;;16.20;99.90;;;;;;5055597;28;20176;-45
2022/06/16 02:16:33;;;;;;;5.90;3.57;;;16.20;99.90;;;;;;5055820;28;20225;-46
2022/06/16 02:19:02;;;;;;;10.37;3.30;;;16.20;99.90;;;;;;4993953;28;20228;-45
2022/06/16 02:21:43;;;;;;;5.87;3.37;;;16.20;99.90;;;;;;4994056;28;20174;-44
2022/06/16 02:24:15;;;;;;;8.37;3.90;;;16.10;99.90;;;;;;5030763;28;20655;-45
2022/06/16 02:26:42;;;;;;;5.03;3.30;;;16.00;99.90;;;;;;5055659;28;20161;-46
2022/06/16 02:29:33;;;;;;;5.77;3.13;;;16.00;99.90;;;;;;5055297;28;20200;-47
2022/06/16 02:32:01;;;;;;;7.93;3.33;;;16.00;99.90;;;;;;5055948;28;20163;-38
2022/06/16 02:34:45;;;;;;;7.17;2.93;;;16.00;99.90;;;;;;5055262;28;20176;-41
2022/06/16 02:37:40;;;;;;;5.47;3.60;;;16.00;99.90;;;;;;5055620;28;20165;-38
2022/06/16 02:40:23;;;;;;;4.80;3.37;;;15.90;99.90;;;;;;5055041;28;20668;-40
2022/06/16 02:43:27;;;;;;;6.17;3.30;;;15.90;99.90;;;;;;5055301;28;20214;-39
2022/06/16 02:46:09;;;;;;;4.80;3.30;;;15.80;99.90;;;;;;4977245;28;20209;-39
2022/06/16 02:49:12;;;;;;;7.50;3.10;;;15.70;99.90;;;;;;5049492;28;20208;-40
2022/06/16 02:52:09;;;;;;;5.23;2.93;;;15.70;99.90;;;;;;5054932;28;20168;-40
2022/06/16 02:55:05;;;;;;;3.50;2.83;;;15.60;99.90;;;;;;5053688;28;20168;-40
2022/06/16 02:57:50;;;;;;;7.60;3.30;;;15.60;99.90;;;;;;5053415;28;20270;-39
2022/06/16 03:00:23;;;;;;;6.00;3.33;;;15.50;99.90;;;;;;5054988;28;20171;-41
2022/06/16 03:02:48;;;;;;;4.43;3.00;;;15.40;99.90;;;;;;5055795;28;20617;-38
2022/06/16 03:05:15;;;;;;;9.93;3.37;;;15.40;99.90;;;;;;5054826;28;20207;-40
2022/06/16 03:07:42;;;;;;;7.03;3.43;;;15.40;99.90;;;;;;5053186;28;20181;-38
2022/06/16 03:10:12;;;;;;;4.60;3.30;;;15.30;99.90;;;;;;5054436;28;20563;-38
2022/06/16 03:12:37;;;;;;;6.93;3.30;;;15.30;99.90;;;;;;5054402;28;20546;-38
2022/06/16 03:15:04;;;;;;;5.00;3.10;;;15.20;99.90;;;;;;5054457;28;20172;-37
2022/06/16 03:17:31;;;;;;;6.90;3.47;;;15.20;99.90;;;;;;5054210;28;20234;-37
2022/06/16 03:19:57;;;;;;;6.27;3.17;;;15.20;99.90;;;;;;5054335;28;20698;-39
2022/06/16 03:22:23;;;;;;;4.87;3.00;;;15.10;99.90;;;;;;5054357;28;20177;-38
2022/06/16 03:24:48;;;;;;;3.63;3.00;;;15.10;99.90;;;;;;5054200;28;20625;-38
2022/06/16 03:27:14;;;;;;;4.03;2.93;;;15.10;99.90;;;;;;5054331;28;20255;-40
2022/06/16 03:29:40;;;;;;;6.33;2.90;;;15.10;99.90;;;;;;5053067;28;20337;-38
2022/06/16 03:32:06;;;;;;;7.70;3.40;;;15.00;99.90;;;;;;5053985;28;20180;-39
2022/06/16 03:34:32;;;;;;;6.03;3.37;;;15.00;99.90;;;;;;5054440;28;20190;-40
2022/06/16 03:36:58;;;;;;;7.97;3.53;;;15.00;99.90;;;;;;5054116;28;20172;-40
2022/06/16 03:39:23;;;;;;;5.00;2.97;;;15.00;99.90;;;;;;5054090;28;20270;-38
2022/06/16 03:41:49;;;;;;;5.80;3.00;;;14.90;99.90;;;;;;5053887;28;20184;-37
2022/06/16 03:44:15;;;;;;;6.00;3.23;;;15.00;99.90;;;;;;5054210;28;20181;-38
2022/06/16 03:46:41;;;;;;;4.97;3.10;;;15.00;99.90;;;;;;5053829;28;20176;-40
2022/06/16 03:49:07;;;;;;;3.83;2.53;;;14.90;99.90;;;;;;5052621;28;20257;-37
2022/06/16 03:51:32;;;;;;;4.67;2.80;;;14.90;99.90;;;;;;5053790;28;20180;-38
2022/06/16 03:53:58;;;;;;;5.43;2.97;;;14.90;99.90;;;;;;5052401;28;20176;-37
2022/06/16 03:56:24;;;;;;;5.73;3.50;;;14.90;99.90;;;;;;5053825;28;20211;-40
2022/06/16 03:58:54;;;;;;;7.50;3.20;;;14.90;99.90;;;;;;5052285;28;20238;-39
2022/06/16 04:01:20;;;;;;;10.13;3.33;;;14.90;99.90;;;;;;5052544;28;20168;-40
2022/06/16 04:04:01;;;;;;;9.53;3.27;;;14.80;99.90;;;;;;5053642;28;20218;-39
2022/06/16 04:06:35;;;;;;;6.93;3.27;;;14.80;99.90;;;;;;5053612;28;20160;-39
2022/06/16 04:09:03;;;;;;;5.93;3.20;;;14.80;99.90;;;;;;5053500;28;20223;-41
2022/06/16 04:11:28;;;;;;;8.30;3.43;;;14.80;99.90;;;;;;5053676;28;20268;-40
2022/06/16 04:14:12;;;;;;;5.13;2.97;;;14.80;99.90;;;;;;5053339;28;20724;-40
2022/06/16 04:16:43;;;;;;;7.93;3.50;;;14.70;99.90;;;;;;5053663;28;20191;-38
2022/06/16 04:19:12;;;;;;;6.50;3.07;;;14.70;99.90;;;;;;5053656;28;20298;-38
2022/06/16 04:21:41;;;;;;;7.60;3.70;;;14.70;99.90;;;;;;5053268;28;20229;-38
2022/06/16 04:24:07;;;;;;;5.37;3.07;;;14.70;99.90;;;;;;5053331;28;20172;-38
2022/06/16 04:26:33;;;;;;;9.30;3.50;;;14.70;99.90;;;;;;5053547;28;20676;-40
2022/06/16 04:28:59;;;;;;;5.83;3.30;;;14.70;99.90;;;;;;5053335;28;20231;-38
2022/06/16 04:31:25;;;;;;;5.43;3.17;;;14.70;99.90;;;;;;5053538;28;20184;-39
2022/06/16 04:33:51;;;;;;;4.67;3.33;;;14.70;99.90;;;;;;5053416;28;20183;-40
2022/06/16 04:36:17;;;;;;;4.00;2.97;;;14.70;99.90;;;;;;5053149;28;20182;-39
2022/06/16 04:38:44;;;;;;;4.60;3.27;;;14.70;99.90;;;;;;5053228;28;20219;-38
2022/06/16 04:41:10;;;;;;;9.27;3.47;;;14.70;99.90;;;;;;5053770;28;20656;-39
2022/06/16 04:43:35;;;;;;;7.17;3.53;;;14.70;99.90;;;;;;5053328;28;20203;-40
2022/06/16 04:46:04;;;;;;;5.03;3.40;;;14.70;99.90;;;;;;5053142;28;20211;-38
2022/06/16 04:48:30;;;;;;;4.90;3.13;;;14.70;99.90;;;;;;5053234;28;20204;-38
2022/06/16 04:50:55;;;;;;;6.60;3.90;;;14.60;99.90;;;;;;5053278;28;20670;-39
2022/06/16 04:53:21;;;;;;;6.07;3.23;;;14.70;99.90;;;;;;5053168;28;20180;-38
2022/06/16 04:55:55;;;;;;;4.77;3.03;;;14.70;99.90;;;;;;5053145;28;20238;-40
2022/06/16 04:58:22;;;;;;;9.43;3.20;;;14.70;99.90;;;;;;5052886;28;20215;-41
2022/06/16 05:00:49;;;;;;;5.97;3.07;;;14.70;99.90;;;;;;5053353;28;20179;-38
2022/06/16 05:03:17;;;;;;;9.73;3.47;;;14.70;99.90;;;;;;5053024;28;20196;-39
2022/06/16 05:05:44;;;;;;;4.93;3.50;;;14.70;99.90;;;;;;5053191;28;20185;-39
2022/06/16 05:08:09;;;;;;;5.67;3.23;;;14.80;99.90;;;;;;5052875;28;20235;-38
2022/06/16 05:10:35;;;;;;;6.50;3.83;;;14.90;99.90;;;;;;5053257;28;20214;-39
2022/06/16 05:13:00;;;;;;;4.90;3.20;;;14.90;99.90;;;;;;5053325;28;20191;-39
2022/06/16 05:15:26;;;;;;;7.13;3.30;;;14.90;99.90;;;;;;5052221;28;20674;-39
2022/06/16 05:17:51;;;;;;;8.27;3.37;;;14.90;99.90;;;;;;5056321;28;20551;-40
2022/06/16 05:20:17;;;;;;;6.77;3.10;;;15.00;99.90;;;;;;5057207;28;20181;-39
2022/06/16 05:22:43;;;;;;;7.93;3.63;;;15.00;99.90;;;;;;5055401;28;20176;-39
2022/06/16 05:25:09;;;;;;;6.70;3.33;;;15.10;99.90;;;;;;5056541;28;20640;-39
2022/06/16 05:27:34;;;;;;;6.03;3.13;;;15.10;99.90;;;;;;5056393;28;20647;-38
2022/06/16 05:30:00;;;;;;;5.27;3.50;;;15.10;99.90;;;;;;5057266;28;20260;-37
2022/06/16 05:32:26;;;;;;;5.33;3.73;;;15.20;99.90;;;;;;5056749;28;20164;-40
2022/06/16 05:34:52;;;;;;;5.80;3.27;;;15.20;99.90;;;;;;5056604;28;20178;-39
2022/06/16 05:37:18;;;;;;;5.07;2.90;;;15.30;99.90;;;;;;5056877;28;20176;-39
2022/06/16 05:39:44;;;;;;;7.53;3.40;;;15.30;99.90;;;;;;5057397;28;20224;-37
2022/06/16 05:42:10;;;;;;;7.67;3.63;;;15.40;99.90;;;;;;5056712;28;20325;-37
2022/06/16 05:44:36;;;;;;;8.67;3.20;;;15.40;99.90;;;;;;5056638;28;20220;-36
2022/06/16 05:47:03;;;;;;;6.43;3.57;;;15.50;99.90;;;;;;5056467;28;20172;-37
2022/06/16 05:49:29;;;;;;;5.93;3.33;;;15.50;99.90;;;;;;5056003;28;20726;-39
2022/06/16 05:51:54;;;;;;;6.00;3.43;;;15.60;99.90;;;;;;5056265;28;20180;-37
2022/06/16 05:54:20;;;;;;;5.77;3.60;;;15.60;99.90;;;;;;5055266;28;20585;-37
2022/06/16 05:56:45;;;;;;;6.77;3.80;;;15.70;99.90;;;;;;5055891;28;20589;-39
2022/06/16 05:59:11;;;;;;;5.13;3.77;;;15.70;99.90;;;;;;5055800;28;20212;-38
2022/06/16 06:01:37;;;;;;;4.70;3.03;;;15.80;99.90;;;;;;5055825;28;20196;-40
2022/06/16 06:04:03;;;;;;;5.80;3.20;;;15.90;99.90;;;;;;5056019;28;20225;-39
2022/06/16 06:06:29;;;;;;;5.70;3.50;;;16.00;99.90;;;;;;5055754;28;20176;-37
2022/06/16 06:17:16;;;;;;;7.73;3.60;;;16.60;99.90;;;;;;5055854;28;20179;-38
2022/06/16 06:19:42;;;;;;;8.77;3.30;;;16.70;99.90;;;;;;5055572;28;20295;-38
2022/06/16 06:22:14;;;;;;;9.03;3.27;;;16.70;99.90;;;;;;5055503;28;20198;-39
2022/06/16 06:24:44;;;;;;;9.70;3.17;;;16.80;99.90;;;;;;5055699;28;20179;-37
2022/06/16 06:27:17;;;;;;;8.07;3.20;;;16.90;99.90;;;;;;5055366;28;20626;-39
2022/06/16 06:29:44;;;;;;;4.80;3.00;;;17.00;99.90;;;;;;5055687;28;20206;-39
2022/06/16 06:32:11;;;;;;;5.90;3.13;;;17.10;99.90;;;;;;5053957;28;20257;-38
2022/06/16 06:34:38;;;;;;;9.10;3.77;;;17.20;99.90;;;;;;5055087;28;20198;-37
2022/06/16 06:37:04;;;;;;;8.23;3.00;;;17.30;99.90;;;;;;5055294;28;20184;-39
2022/06/16 06:39:30;;;;;;;5.80;2.90;;;17.40;99.90;;;;;;5055831;28;20215;-39
2022/06/16 06:41:56;;;;;;;5.17;2.93;;;17.50;99.90;;;;;;5055235;28;20176;-37
2022/06/16 06:44:22;;;;;;;4.13;2.77;;;17.60;99.90;;;;;;5054940;28;20183;-38
2022/06/16 06:46:47;;;;;;;10.93;2.90;;;17.70;99.90;;;;;;5054977;28;20181;-39
2022/06/16 06:49:13;;;;;;;5.93;2.60;;;17.80;99.90;;;;;;5054937;28;20200;-37
2022/06/16 06:51:39;;;;;;;5.53;2.50;;;17.80;99.90;;;;;;5054881;28;20177;-41
2022/06/16 06:54:05;;;;;;;3.57;2.77;;;18.00;99.90;;;;;;5055102;28;20267;-39
2022/06/16 06:56:31;;;;;;;4.90;2.57;;;18.00;99.90;;;;;;5054850;28;20271;-38
2022/06/16 06:58:59;;;;;;;8.03;2.67;;;18.10;99.90;;;;;;5054505;28;20204;-40
2022/06/16 07:01:25;;;;;;;4.97;2.40;;;18.10;99.90;;;;;;5054584;28;20242;-40
2022/06/16 07:03:51;;;;;;;4.53;2.50;;;18.10;99.90;;;;;;5054581;28;20259;-40
2022/06/16 07:06:18;;;;;;;8.17;3.27;;;18.20;99.90;;;;;;5054483;28;20176;-40
2022/06/16 07:08:44;;;;;;;7.67;3.43;;;18.30;99.90;;;;;;5054430;28;20296;-39
2022/06/16 07:11:10;;;;;;;8.33;4.00;;;18.40;99.90;;;;;;5054519;28;20183;-40
2022/06/16 07:13:35;;;;;;;6.60;3.20;;;18.50;99.90;;;;;;5054527;28;20180;-42
2022/06/16 07:16:02;;;;;;;4.40;2.63;;;18.60;99.90;;;;;;5054958;28;20210;-39
2022/06/16 07:18:28;;;;;;;4.97;2.80;;;18.80;99.90;;;;;;5055167;28;20207;-40
2022/06/16 07:20:53;;;;;;;4.97;3.23;;;19.00;99.90;;;;;;5054612;28;20639;-40
2022/06/16 07:23:20;;;;;;;7.27;3.87;;;19.10;99.90;;;;;;5054643;28;20172;-38
2022/06/16 07:25:48;;;;;;;7.50;3.50;;;19.00;99.90;;;;;;5054305;28;20543;-39
2022/06/16 07:28:13;;;;;;;5.53;2.83;;;19.00;99.90;;;;;;5053959;28;20196;-40
2022/06/16 07:30:40;;;;;;;7.67;3.37;;;19.00;99.90;;;;;;5054028;28;20180;-40
2022/06/16 07:33:06;;;;;;;5.63;2.87;;;19.10;99.90;;;;;;5054031;28;20176;-40
2022/06/16 07:35:32;;;;;;;5.73;3.40;;;19.20;99.90;;;;;;5053908;28;20173;-40
2022/06/16 07:37:57;;;;;;;7.80;2.83;;;19.20;99.90;;;;;;5054097;28;20196;-41
2022/06/16 07:40:24;;;;;;;5.40;2.67;;;19.30;99.90;;;;;;5053329;28;20551;-40
2022/06/16 07:42:54;;;;;;;4.23;2.40;;;19.30;99.90;;;;;;5054035;28;20187;-40
2022/06/16 07:45:20;;;;;;;6.13;3.00;;;19.30;99.90;;;;;;5053790;28;20156;-41
2022/06/16 07:47:46;;;;;;;3.30;2.47;;;19.30;99.90;;;;;;5054168;28;20157;-40
2022/06/16 07:50:12;;;;;;;5.80;2.07;;;19.20;99.90;;;;;;5052482;28;20666;-40
2022/06/16 07:52:38;;;;;;;5.07;2.93;;;19.30;99.90;;;;;;5052725;28;20176;-40
2022/06/16 07:55:06;;;;;;;7.23;2.50;;;19.40;99.90;;;;;;5053587;28;20172;-40
2022/06/16 07:57:34;;;;;;;6.17;3.03;;;19.40;99.90;;;;;;5053826;28;20182;-40
2022/06/16 08:00:00;;;;;;;3.27;2.20;;;19.40;99.90;;;;;;5053443;28;20628;-40
2022/06/16 08:02:27;;;;;;;3.13;2.00;;;19.50;99.90;;;;;;5053527;28;20168;-41
2022/06/16 08:04:53;;;;;;;3.50;2.23;;;19.50;99.90;;;;;;5053470;28;20226;-41
2022/06/16 08:07:19;;;;;;;3.07;2.10;;;19.60;99.90;;;;;;5053431;28;20160;-41
2022/06/16 08:09:45;;;;;;;3.47;2.33;;;19.70;99.90;;;;;;5053236;28;20208;-41
2022/06/16 08:12:12;;;;;;;4.27;1.97;;;19.80;99.90;;;;;;5053341;28;20263;-41
2022/06/16 08:14:40;;;;;;;3.60;2.07;;;19.90;99.90;;;;;;5052094;28;20527;-41
2022/06/16 08:17:16;;;;;;;5.73;2.00;;;20.10;99.90;;;;;;5053245;28;20176;-40
2022/06/16 08:19:41;;;;;;;6.57;1.80;;;20.10;99.90;;;;;;5053622;28;20265;-40
2022/06/16 08:22:07;;;;;;;5.50;2.10;;;20.00;99.90;;;;;;5054483;28;20222;-40
2022/06/16 08:24:33;;;;;;;5.43;1.83;;;20.00;99.90;;;;;;5053709;28;20161;-41
2022/06/16 08:27:01;;;;;;;3.87;2.00;;;20.00;99.90;;;;;;5053980;28;20495;-39
2022/06/16 08:29:27;;;;;;;3.80;2.00;;;20.00;99.90;;;;;;5053620;28;20203;-40
2022/06/16 08:31:54;;;;;;;2.57;1.50;;;20.20;99.90;;;;;;5053460;28;20180;-40
2022/06/16 08:34:19;;;;;;;5.23;1.53;;;20.40;99.90;;;;;;5053092;28;20202;-39
2022/06/16 08:36:45;;;;;;;3.70;1.90;;;20.50;99.90;;;;;;5053318;28;20184;-39
2022/06/16 08:39:10;;;;;;;4.97;1.80;;;20.70;99.90;;;;;;5053151;28;20220;-40
2022/06/16 08:41:57;;;;;;;3.03;1.60;;;20.80;99.90;;;;;;5053548;28;20180;-40
2022/06/16 08:44:39;;;;;;;3.90;1.50;;;20.90;99.90;;;;;;5053160;28;20580;-41
2022/06/16 08:47:14;;;;;;;3.03;1.43;;;20.80;99.90;;;;;;5052298;28;20175;-40
2022/06/16 08:49:55;;;;;;;5.33;1.30;;;20.80;99.90;;;;;;5053286;28;20557;-39
2022/06/16 08:52:54;;;;;;;3.60;1.40;;;20.90;99.90;;;;;;5056940;28;20176;-38
2022/06/16 08:55:53;;;;;;;2.00;1.20;;;21.00;99.60;;;;;;5057240;28;20205;-40
2022/06/16 08:58:33;;;;;;;4.03;1.33;;;21.00;98.80;;;;;;5055516;28;20223;-40
2022/06/16 09:01:06;;;;;;;2.03;1.10;;;21.10;99.40;;;;;;5057336;28;20513;-39
2022/06/16 09:03:41;;;;;;;2.20;1.33;;;21.20;98.40;;;;;;5057064;28;20255;-40
2022/06/16 09:06:19;;;;;;;3.53;1.30;;;21.10;98.50;;;;;;5056821;28;20164;-39
2022/06/16 09:08:53;;;;;;;5.20;1.37;;;21.20;99.90;;;;;;5056710;28;20640;-40
2022/06/16 09:11:28;;;;;;;3.40;1.10;;;21.30;99.50;;;;;;5057043;28;20191;-39
2022/06/16 09:15:10;;;;;;;2.33;1.10;;;21.40;99.80;;;;;;5056712;28;20229;-40
2022/06/16 09:17:28;;;;;;;2.17;1.20;;;21.50;97.50;;;;;;5056510;28;20211;-41
2022/06/16 09:20:45;;;;;;;1.60;1.20;;;21.50;98.60;;;;;;5056782;28;20220;-40
2022/06/16 09:23:46;;;;;;;1.83;1.20;;;21.50;98.90;;;;;;5031149;28;20670;-41
2022/06/16 09:26:28;;;;;;;3.67;1.10;;;21.50;98.20;;;;;;5055196;28;20180;-39
2022/06/16 09:28:56;;;;;;;3.93;1.30;;;21.50;97.30;;;;;;5056390;28;20657;-39
2022/06/16 09:31:38;;;;;;;2.30;1.00;;;21.60;97.10;;;;;;5056497;28;20176;-40
2022/06/16 09:34:29;;;;;;;3.73;1.70;;;21.60;97.60;;;;;;5039667;28;20218;-42
2022/06/16 09:37:01;;;;;;;5.67;1.40;;;21.80;98.50;;;;;;5021387;28;20553;-41
2022/06/16 09:39:38;;;;;;;3.43;1.43;;;21.70;99.30;;;;;;5056644;28;20651;-42
2022/06/16 09:42:32;;;;;;;1.63;1.40;;;21.70;98.90;;;;;;5057259;28;20165;-40
2022/06/16 09:45:08;;;;;;;1.60;1.10;;;21.60;98.90;;;;;;5056524;28;20153;-38
2022/06/16 09:47:41;;;;;;;2.07;1.20;;;21.70;99.90;;;;;;5057298;28;20167;-41
2022/06/16 09:50:29;;;;;;;1.80;1.20;;;21.80;99.70;;;;;;5055918;28;20215;-41
2022/06/16 09:53:05;;;;;;;2.17;1.00;;;22.00;99.90;;;;;;5056280;28;20255;-39
2022/06/16 09:55:41;;;;;;;3.07;1.13;;;22.20;99.00;;;;;;5056127;28;20160;-40
2022/06/16 09:58:25;;;;;;;2.60;1.10;;;22.20;97.70;;;;;;5055623;28;20215;-39
2022/06/16 10:00:55;;;;;;;1.57;1.00;;;22.20;97.10;;;;;;5055794;28;20164;-39
2022/06/16 10:03:27;;;;;;;1.67;1.10;;;22.20;98.20;;;;;;5054842;28;20241;-40
2022/06/16 10:06:12;;;;;;;2.03;0.97;;;22.20;97.70;;;;;;5055885;28;20161;-40
2022/06/16 10:09:08;;;;;;;1.67;1.00;;;22.30;96.90;;;;;;5055612;28;20312;-41
2022/06/16 10:12:01;;;;;;;2.80;1.30;;;22.40;95.30;;;;;;5056436;28;20164;-41
2022/06/16 10:14:55;;;;;;;4.20;1.37;;;22.20;96.90;;;;;;5055800;28;20168;-41
2022/06/16 10:17:23;;;;;;;1.47;1.13;;;22.20;97.60;;;;;;5055743;28;20166;-42
2022/06/16 10:19:50;;;;;;;2.43;1.07;;;22.30;97.80;;;;;;5055368;28;20213;-41
2022/06/16 10:22:18;;;;;;;5.50;1.40;;;22.40;96.90;;;;;;5055553;28;20246;-40
2022/06/16 10:24:49;;;;;;;2.50;1.30;;;22.50;97.20;;;;;;5055564;28;20543;-41
2022/06/16 10:27:17;;;;;;;5.43;1.40;;;22.40;97.70;;;;;;5055512;28;20501;-41
2022/06/16 10:29:57;;;;;;;2.63;1.53;;;22.40;95.90;;;;;;5055363;28;20200;-40
2022/06/16 10:32:43;;;;;;;3.90;1.40;;;22.20;97.50;;;;;;5055542;28;20259;-41
2022/06/16 10:35:20;;;;;;;2.33;1.33;;;22.20;97.40;;;;;;5055051;28;20176;-41
2022/06/16 10:37:50;;;;;;;1.87;1.17;;;22.20;97.40;;;;;;5054957;28;20164;-41
2022/06/16 10:40:29;;;;;;;1.73;1.27;;;22.20;98.10;;;;;;5055287;28;20187;-42
2022/06/16 10:43:05;;;;;;;4.30;1.40;;;22.40;98.60;;;;;;5055155;28;20241;-41
2022/06/16 10:45:34;;;;;;;3.13;1.20;;;22.60;98.70;;;;;;5053755;28;20168;-41
2022/06/16 10:48:28;;;;;;;2.67;1.47;;;22.70;98.80;;;;;;5054774;28;20176;-40
2022/06/16 10:51:16;;;;;;;4.63;1.33;;;22.70;98.20;;;;;;5047410;28;20246;-41
2022/06/16 10:54:03;;;;;;;4.10;1.33;;;22.70;98.50;;;;;;5054782;28;20159;-40
2022/06/16 10:56:29;;;;;;;2.50;1.50;;;22.70;97.10;;;;;;5043802;28;20185;-40
2022/06/16 10:59:02;;;;;;;4.00;1.57;;;22.80;97.70;;;;;;5054707;28;20258;-39
2022/06/16 11:01:35;;;;;;;2.10;1.40;;;22.90;98.10;;;;;;5054870;28;20663;-40
2022/06/16 11:04:10;;;;;;;2.10;1.37;;;22.90;98.20;;;;;;5054853;28;20255;-41
2022/06/16 11:06:39;;;;;;;2.60;1.30;;;23.10;98.40;;;;;;5055020;28;20156;-40
2022/06/16 11:09:07;;;;;;;1.67;1.40;;;23.20;98.40;;;;;;5054283;28;20220;-39
2022/06/16 11:11:54;;;;;;;1.40;1.30;;;23.20;98.50;;;;;;5054396;28;20274;-41
2022/06/16 11:14:33;;;;;;;1.40;1.30;;;23.10;97.60;;;;;;5054596;28;20245;-41
2022/06/16 11:16:59;;;;;;;1.83;1.20;;;23.10;97.90;;;;;;5054331;28;20623;-42
2022/06/16 11:19:25;;;;;;;4.83;1.47;;;23.10;97.30;;;;;;5053996;28;20208;-42
2022/06/16 11:21:51;;;;;;;4.07;1.37;;;23.20;97.60;;;;;;5054143;28;20226;-41
2022/06/16 11:24:53;;;;;;;2.93;1.30;;;23.10;98.10;;;;;;5054307;28;20180;-40
2022/06/16 11:27:18;;;;;;;3.27;1.27;;;23.20;97.90;;;;;;5054333;28;20160;-41
2022/06/16 11:29:44;;;;;;;3.88;1.20;;;23.30;98.10;;;;;;5053804;28;20215;-42
2022/06/16 11:32:24;;;;;;;4.23;1.50;;;23.30;96.90;;;;;;5053875;28;20219;-40
2022/06/16 11:34:51;;;;;;;2.10;1.37;;;23.30;97.60;;;;;;5054184;28;20172;-41
2022/06/16 11:37:38;;;;;;;1.87;0.93;;;23.30;97.20;;;;;;5054102;28;20176;-40
2022/06/16 11:40:07;;;;;;;2.47;1.20;;;23.40;97.60;;;;;;5054161;28;20200;-39
2022/06/16 11:42:59;;;;;;;1.83;1.67;;;23.50;97.00;;;;;;5053885;28;20176;-41
2022/06/16 11:45:53;;;;;;;3.17;1.40;;;23.30;96.80;;;;;;5054167;28;20157;-41
2022/06/16 11:48:52;;;;;;;3.30;1.53;;;23.30;96.50;;;;;;5053923;28;20620;-41
2022/06/16 11:51:40;;;;;;;2.88;1.45;;;23.40;96.50;;;;;;5053837;28;20581;-39
2022/06/16 11:54:37;;;;;;;3.47;1.38;;;23.40;95.70;;;;;;5053520;28;20172;-41
2022/06/16 11:57:21;;;;;;;1.47;1.00;;;23.50;97.60;;;;;;5054054;28;20164;-41
2022/06/16 12:00:25;;;;;;;2.45;1.20;;;23.70;96.60;;;;;;5053551;28;20203;-41
2022/06/16 12:03:01;;;;;;;1.77;1.00;;;23.80;97.40;;;;;;5045393;28;20196;-41
2022/06/16 12:05:46;;;;;;;8.00;1.42;;;24.00;97.50;;;;;;5053623;28;20168;-40
2022/06/16 12:08:43;;;;;;;3.75;1.50;;;24.20;96.60;;;;;;5053377;28;20215;-41
2022/06/16 12:11:35;;;;;;;1.83;1.30;;;24.20;96.70;;;;;;5053325;28;20620;-41
2022/06/16 12:14:23;;;;;;;2.47;1.60;;;24.30;97.10;;;;;;5053527;28;20257;-42
2022/06/16 12:16:52;;;;;;;2.15;1.50;;;24.40;96.30;;;;;;5054250;28;20581;-42
2022/06/16 12:20:01;;;;;;;2.03;1.30;;;24.60;96.20;;;;;;5053258;28;20261;-42
2022/06/16 12:22:48;;;;;;;2.92;1.23;;;24.60;96.40;;;;;;5019662;28;20196;-41
2022/06/16 12:25:25;;;;;;;4.13;1.50;;;24.50;96.50;;;;;;5052654;28;20172;-42
2022/06/16 12:28:10;;;;;;;2.78;1.45;;;24.60;95.80;;;;;;5053196;28;20187;-44
2022/06/16 12:30:45;;;;;;;2.08;1.10;;;24.40;96.80;;;;;;5053246;28;20243;-43
2022/06/16 12:33:31;;;;;;;3.10;1.17;;;24.50;95.40;;;;;;5053597;28;20160;-40
2022/06/16 12:36:08;;;;;;;1.45;1.17;;;24.50;96.10;;;;;;5053171;28;20160;-42
2022/06/16 12:38:45;;;;;;;1.88;1.30;;;24.60;96.20;;;;;;5053007;28;20211;-42
2022/06/16 12:41:21;;;;;;;2.13;1.30;;;24.60;94.10;;;;;;5053098;28;20222;-43
2022/06/16 12:44:05;;;;;;;2.30;1.38;;;24.50;94.60;;;;;;5052861;28;20160;-42
2022/06/16 12:46:41;;;;;;;2.38;1.38;;;24.40;94.40;;;;;;5053108;28;20259;-42
2022/06/16 12:49:24;;;;;;;3.33;1.67;;;24.40;95.40;;;;;;5052856;28;20191;-42
2022/06/16 12:51:59;;;;;;;2.75;1.58;;;24.50;94.90;;;;;;5052846;28;20195;-42
2022/06/16 12:54:35;;;;;;;2.60;1.30;;;24.70;95.70;;;;;;5053007;28;20172;-42
2022/06/16 12:57:03;;;;;;;3.72;1.20;;;24.90;94.40;;;;;;5053411;28;20168;-42
2022/06/16 12:59:51;;;;;;;3.47;1.33;;;24.90;95.50;;;;;;5053057;28;20609;-41
2022/06/16 13:02:21;;;;;;;2.65;1.25;;;25.00;94.80;;;;;;5039289;28;20183;-43
2022/06/16 13:04:50;;;;;;;2.20;1.30;;;25.10;95.90;;;;;;5053091;28;20196;-41
2022/06/16 13:07:20;;;;;;;2.17;1.35;;;25.20;95.80;;;;;;5052998;28;20683;-43
2022/06/16 13:09:46;;;;;;;2.38;1.67;;;25.40;96.20;;;;;;5052656;28;20212;-47
2022/06/16 13:12:21;;;;;;;3.10;1.60;;;25.50;94.40;;;;;;5052702;28;20183;-46
2022/06/16 13:15:07;;;;;;;2.35;1.40;;;25.40;93.30;;;;;;5052636;28;20221;-46
2022/06/16 13:17:38;;;;;;;4.55;1.40;;;25.20;94.20;;;;;;5052575;28;20640;-46
2022/06/16 13:20:10;;;;;;;1.95;1.30;;;25.30;93.70;;;;;;5052518;28;20294;-45
2022/06/16 13:22:41;;;;;;;2.35;1.33;;;25.50;93.70;;;;;;5052688;28;20161;-45
2022/06/16 13:25:31;;;;;;;2.20;1.30;;;25.70;93.30;;;;;;5052638;28;20176;-46
2022/06/16 13:27:56;;;;;;;2.78;1.17;;;25.70;95.50;;;;;;5051454;28;20221;-45
2022/06/16 13:30:38;;;;;;;4.72;1.40;;;25.80;93.10;;;;;;5052802;28;20180;-45